Terminal Aerodrome Forecast
Issued by NWS Lake Charles, LA

Home | Current Version | Previous Version | Text Only | Print | Product List | Glossary On
Versions: 1 2 3 4 5 6 7 8 9 10 11 12 13 14 15 16 17
000
FTUS44 KLCH 230520
TAFLFT
TAF
KLFT 230520Z 2306/2406 18011KT P6SM VCSH SCT015 BKN070
      TEMPO 2306/2310 BKN015
     FM231000 20011KT P6SM VCSH BKN015
     FM231400 20014G21KT P6SM VCTS BKN025CB
     FM231800 20014G21KT P6SM VCTS SCT025CB BKN050
     FM240000 20007KT P6SM SCT050 BKN250=

USA.gov is the U.S. government's official web portal to all federal, state and local government web resources and services.